sensor_id;sensor_type;location;lat;lon;timestamp;temperature;humidity
8178;DHT22;4130;48.740;9.132;2023-03-23T00:01:14;11.90;99.70
8178;DHT22;4130;48.740;9.132;2023-03-23T00:03:49;12.00;99.60
8178;DHT22;4130;48.740;9.132;2023-03-23T00:06:16;12.00;99.40
8178;DHT22;4130;48.740;9.132;2023-03-23T00:08:45;12.10;99.40
8178;DHT22;4130;48.740;9.132;2023-03-23T00:11:13;12.10;99.40
8178;DHT22;4130;48.740;9.132;2023-03-23T00:13:42;12.20;99.30
8178;DHT22;4130;48.740;9.132;2023-03-23T00:16:11;12.20;99.50
8178;DHT22;4130;48.740;9.132;2023-03-23T00:18:44;12.20;99.50
8178;DHT22;4130;48.740;9.132;2023-03-23T00:21:11;12.20;99.30
8178;DHT22;4130;48.740;9.132;2023-03-23T00:23:38;12.20;99.30
8178;DHT22;4130;48.740;9.132;2023-03-23T00:26:05;12.20;99.60
8178;DHT22;4130;48.740;9.132;2023-03-23T00:28:32;12.20;99.50
8178;DHT22;4130;48.740;9.132;2023-03-23T00:31:03;12.10;99.50
8178;DHT22;4130;48.740;9.132;2023-03-23T00:33:34;12.10;99.40
8178;DHT22;4130;48.740;9.132;2023-03-23T00:36:04;12.10;99.40
8178;DHT22;4130;48.740;9.132;2023-03-23T00:38:31;12.00;99.30
8178;DHT22;4130;48.740;9.132;2023-03-23T00:40:58;11.90;99.50
8178;DHT22;4130;48.740;9.132;2023-03-23T00:43:28;11.90;99.20
8178;DHT22;4130;48.740;9.132;2023-03-23T00:45:55;11.80;99.20
8178;DHT22;4130;48.740;9.132;2023-03-23T00:48:23;11.80;99.10
8178;DHT22;4130;48.740;9.132;2023-03-23T00:50:52;11.90;99.10
8178;DHT22;4130;48.740;9.132;2023-03-23T00:53:19;11.90;99.20
8178;DHT22;4130;48.740;9.132;2023-03-23T00:55:47;11.80;99.20
8178;DHT22;4130;48.740;9.132;2023-03-23T00:58:16;11.80;99.30
8178;DHT22;4130;48.740;9.132;2023-03-23T01:00:43;11.70;99.30
8178;DHT22;4130;48.740;9.132;2023-03-23T01:03:10;11.70;99.50
8178;DHT22;4130;48.740;9.132;2023-03-23T01:05:44;11.60;99.70
8178;DHT22;4130;48.740;9.132;2023-03-23T01:08:14;11.50;99.80
8178;DHT22;4130;48.740;9.132;2023-03-23T01:10:41;11.50;99.80
8178;DHT22;4130;48.740;9.132;2023-03-23T01:13:08;11.50;99.80
8178;DHT22;4130;48.740;9.132;2023-03-23T01:15:35;11.50;99.90
8178;DHT22;4130;48.740;9.132;2023-03-23T01:18:02;11.40;99.90
8178;DHT22;4130;48.740;9.132;2023-03-23T01:20:29;11.40;99.90
8178;DHT22;4130;48.740;9.132;2023-03-23T01:22:56;11.40;99.90
8178;DHT22;4130;48.740;9.132;2023-03-23T01:25:28;11.40;99.90
8178;DHT22;4130;48.740;9.132;2023-03-23T01:27:55;11.30;99.90
8178;DHT22;4130;48.740;9.132;2023-03-23T01:30:22;11.30;99.90
8178;DHT22;4130;48.740;9.132;2023-03-23T01:32:49;11.30;99.90
8178;DHT22;4130;48.740;9.132;2023-03-23T01:35:16;11.20;99.90
8178;DHT22;4130;48.740;9.132;2023-03-23T01:37:43;11.30;99.90
8178;DHT22;4130;48.740;9.132;2023-03-23T01:40:11;11.20;99.90
8178;DHT22;4130;48.740;9.132;2023-03-23T01:42:39;11.20;99.90
8178;DHT22;4130;48.740;9.132;2023-03-23T01:45:28;11.30;99.90
8178;DHT22;4130;48.740;9.132;2023-03-23T01:48:03;11.30;99.90
8178;DHT22;4130;48.740;9.132;2023-03-23T01:50:36;11.30;99.90
8178;DHT22;4130;48.740;9.132;2023-03-23T01:53:06;11.30;99.90
8178;DHT22;4130;48.740;9.132;2023-03-23T01:55:36;11.30;99.90
8178;DHT22;4130;48.740;9.132;2023-03-23T01:58:06;11.30;99.90
8178;DHT22;4130;48.740;9.132;2023-03-23T02:00:33;11.30;99.90
8178;DHT22;4130;48.740;9.132;2023-03-23T02:03:00;11.30;99.90
8178;DHT22;4130;48.740;9.132;2023-03-23T02:05:30;11.30;99.90
8178;DHT22;4130;48.740;9.132;2023-03-23T02:08:00;11.30;99.90
8178;DHT22;4130;48.740;9.132;2023-03-23T02:10:30;11.30;99.90
8178;DHT22;4130;48.740;9.132;2023-03-23T02:12:58;11.30;99.90
8178;DHT22;4130;48.740;9.132;2023-03-23T02:15:31;11.30;99.90
8178;DHT22;4130;48.740;9.132;2023-03-23T02:18:05;11.40;99.90
8178;DHT22;4130;48.740;9.132;2023-03-23T02:21:07;11.40;99.90
8178;DHT22;4130;48.740;9.132;2023-03-23T02:23:56;11.40;99.90
8178;DHT22;4130;48.740;9.132;2023-03-23T02:26:38;11.40;99.90
8178;DHT22;4130;48.740;9.132;2023-03-23T02:32:21;11.50;99.90
8178;DHT22;4130;48.740;9.132;2023-03-23T02:34:53;11.60;99.90
8178;DHT22;4130;48.740;9.132;2023-03-23T02:37:27;11.60;99.90
8178;DHT22;4130;48.740;9.132;2023-03-23T02:40:01;11.60;99.90
8178;DHT22;4130;48.740;9.132;2023-03-23T02:42:33;11.60;99.90
8178;DHT22;4130;48.740;9.132;2023-03-23T02:45:03;11.60;99.90
8178;DHT22;4130;48.740;9.132;2023-03-23T02:47:32;11.60;99.90
8178;DHT22;4130;48.740;9.132;2023-03-23T02:50:03;11.50;99.90
8178;DHT22;4130;48.740;9.132;2023-03-23T02:52:33;11.50;99.90
8178;DHT22;4130;48.740;9.132;2023-03-23T02:55:02;11.40;99.90
8178;DHT22;4130;48.740;9.132;2023-03-23T02:57:30;11.30;99.90
8178;DHT22;4130;48.740;9.132;2023-03-23T02:59:57;11.30;99.90
8178;DHT22;4130;48.740;9.132;2023-03-23T03:02:25;11.20;99.90
8178;DHT22;4130;48.740;9.132;2023-03-23T03:04:58;11.10;99.90
8178;DHT22;4130;48.740;9.132;2023-03-23T03:07:52;11.10;99.90
8178;DHT22;4130;48.740;9.132;2023-03-23T03:10:25;11.10;99.90
8178;DHT22;4130;48.740;9.132;2023-03-23T03:12:57;11.20;99.90
8178;DHT22;4130;48.740;9.132;2023-03-23T03:15:29;11.20;99.90
8178;DHT22;4130;48.740;9.132;2023-03-23T03:18:04;11.20;99.90
8178;DHT22;4130;48.740;9.132;2023-03-23T03:20:32;11.30;99.90
8178;DHT22;4130;48.740;9.132;2023-03-23T03:23:05;11.30;99.90
8178;DHT22;4130;48.740;9.132;2023-03-23T03:25:35;11.30;99.90
8178;DHT22;4130;48.740;9.132;2023-03-23T03:28:02;11.40;99.90
8178;DHT22;4130;48.740;9.132;2023-03-23T03:30:33;11.40;99.90
8178;DHT22;4130;48.740;9.132;2023-03-23T03:33:00;11.40;99.90
8178;DHT22;4130;48.740;9.132;2023-03-23T03:35:28;11.50;99.90
8178;DHT22;4130;48.740;9.132;2023-03-23T03:37:56;11.50;99.90
8178;DHT22;4130;48.740;9.132;2023-03-23T03:40:24;11.50;99.90
8178;DHT22;4130;48.740;9.132;2023-03-23T03:42:51;11.50;99.90
8178;DHT22;4130;48.740;9.132;2023-03-23T03:45:19;11.50;99.90
8178;DHT22;4130;48.740;9.132;2023-03-23T03:47:46;11.50;99.90
8178;DHT22;4130;48.740;9.132;2023-03-23T03:50:13;11.50;99.90
8178;DHT22;4130;48.740;9.132;2023-03-23T03:52:40;11.50;99.90
8178;DHT22;4130;48.740;9.132;2023-03-23T03:55:09;11.50;99.90
8178;DHT22;4130;48.740;9.132;2023-03-23T03:57:38;11.50;99.90
8178;DHT22;4130;48.740;9.132;2023-03-23T04:00:06;11.50;99.90
8178;DHT22;4130;48.740;9.132;2023-03-23T04:02:41;11.50;99.90
8178;DHT22;4130;48.740;9.132;2023-03-23T04:05:08;11.60;99.90
8178;DHT22;4130;48.740;9.132;2023-03-23T04:07:37;11.60;99.90
8178;DHT22;4130;48.740;9.132;2023-03-23T04:10:05;11.60;99.90
8178;DHT22;4130;48.740;9.132;2023-03-23T04:12:32;11.70;99.90
8178;DHT22;4130;48.740;9.132;2023-03-23T04:15:00;11.70;99.90
8178;DHT22;4130;48.740;9.132;2023-03-23T04:17:27;11.70;99.90
8178;DHT22;4130;48.740;9.132;2023-03-23T04:19:55;11.80;99.90
8178;DHT22;4130;48.740;9.132;2023-03-23T04:22:22;11.80;99.90
8178;DHT22;4130;48.740;9.132;2023-03-23T04:24:56;11.80;99.90
8178;DHT22;4130;48.740;9.132;2023-03-23T04:27:24;11.80;99.90
8178;DHT22;4130;48.740;9.132;2023-03-23T04:29:53;11.90;99.90
8178;DHT22;4130;48.740;9.132;2023-03-23T04:32:22;11.90;99.90
8178;DHT22;4130;48.740;9.132;2023-03-23T04:34:50;11.80;99.90
8178;DHT22;4130;48.740;9.132;2023-03-23T04:37:17;11.80;99.90
8178;DHT22;4130;48.740;9.132;2023-03-23T04:39:43;11.90;99.90
8178;DHT22;4130;48.740;9.132;2023-03-23T04:42:10;11.90;99.90
8178;DHT22;4130;48.740;9.132;2023-03-23T04:44:39;11.80;99.90
8178;DHT22;4130;48.740;9.132;2023-03-23T04:47:07;11.80;99.90
8178;DHT22;4130;48.740;9.132;2023-03-23T04:49:36;11.90;99.90
8178;DHT22;4130;48.740;9.132;2023-03-23T04:52:03;11.90;99.90
8178;DHT22;4130;48.740;9.132;2023-03-23T04:54:29;11.90;99.90
8178;DHT22;4130;48.740;9.132;2023-03-23T04:56:56;11.90;99.90
8178;DHT22;4130;48.740;9.132;2023-03-23T04:59:24;12.00;99.90
8178;DHT22;4130;48.740;9.132;2023-03-23T05:01:53;12.00;99.90
8178;DHT22;4130;48.740;9.132;2023-03-23T05:04:21;11.90;99.90
8178;DHT22;4130;48.740;9.132;2023-03-23T05:06:52;11.90;99.90
8178;DHT22;4130;48.740;9.132;2023-03-23T05:09:19;11.90;99.90
8178;DHT22;4130;48.740;9.132;2023-03-23T05:11:46;11.90;99.90
8178;DHT22;4130;48.740;9.132;2023-03-23T05:14:13;12.00;99.90
8178;DHT22;4130;48.740;9.132;2023-03-23T05:16:39;12.10;99.90
8178;DHT22;4130;48.740;9.132;2023-03-23T05:19:06;12.10;99.90
8178;DHT22;4130;48.740;9.132;2023-03-23T05:21:33;12.10;99.90
8178;DHT22;4130;48.740;9.132;2023-03-23T05:24:02;12.20;99.90
8178;DHT22;4130;48.740;9.132;2023-03-23T05:26:29;12.20;99.90
8178;DHT22;4130;48.740;9.132;2023-03-23T05:28:56;12.20;99.90
8178;DHT22;4130;48.740;9.132;2023-03-23T05:31:23;12.20;99.90
8178;DHT22;4130;48.740;9.132;2023-03-23T05:33:50;12.30;99.90
8178;DHT22;4130;48.740;9.132;2023-03-23T05:36:17;12.30;99.90
8178;DHT22;4130;48.740;9.132;2023-03-23T05:38:44;12.40;99.90
8178;DHT22;4130;48.740;9.132;2023-03-23T05:41:14;12.40;99.90
8178;DHT22;4130;48.740;9.132;2023-03-23T05:43:41;12.40;99.90
8178;DHT22;4130;48.740;9.132;2023-03-23T05:46:08;12.50;99.90
8178;DHT22;4130;48.740;9.132;2023-03-23T05:48:35;12.50;99.90
8178;DHT22;4130;48.740;9.132;2023-03-23T05:51:02;12.50;99.90
8178;DHT22;4130;48.740;9.132;2023-03-23T05:53:29;12.50;99.90
8178;DHT22;4130;48.740;9.132;2023-03-23T05:55:58;12.50;99.90
8178;DHT22;4130;48.740;9.132;2023-03-23T05:58:27;12.60;99.90
8178;DHT22;4130;48.740;9.132;2023-03-23T06:00:54;12.70;99.90
8178;DHT22;4130;48.740;9.132;2023-03-23T06:03:21;12.80;99.90
8178;DHT22;4130;48.740;9.132;2023-03-23T06:05:48;13.00;99.90
8178;DHT22;4130;48.740;9.132;2023-03-23T06:08:15;12.90;99.90
8178;DHT22;4130;48.740;9.132;2023-03-23T06:10:42;13.00;99.90
8178;DHT22;4130;48.740;9.132;2023-03-23T06:13:09;13.00;99.90
8178;DHT22;4130;48.740;9.132;2023-03-23T06:15:37;13.00;99.90
8178;DHT22;4130;48.740;9.132;2023-03-23T06:18:04;13.00;99.90
8178;DHT22;4130;48.740;9.132;2023-03-23T06:20:31;13.00;99.70
8178;DHT22;4130;48.740;9.132;2023-03-23T06:22:58;13.00;99.90
8178;DHT22;4130;48.740;9.132;2023-03-23T06:25:25;13.00;99.90
8178;DHT22;4130;48.740;9.132;2023-03-23T06:27:52;13.10;99.60
8178;DHT22;4130;48.740;9.132;2023-03-23T06:30:20;13.00;99.90
8178;DHT22;4130;48.740;9.132;2023-03-23T06:32:48;13.00;99.80
8178;DHT22;4130;48.740;9.132;2023-03-23T06:35:16;13.00;99.90
8178;DHT22;4130;48.740;9.132;2023-03-23T06:37:42;13.00;99.90
8178;DHT22;4130;48.740;9.132;2023-03-23T06:40:09;12.90;99.90
8178;DHT22;4130;48.740;9.132;2023-03-23T06:42:36;12.90;99.90
8178;DHT22;4130;48.740;9.132;2023-03-23T06:45:04;12.90;99.90
8178;DHT22;4130;48.740;9.132;2023-03-23T06:47:31;12.90;99.90
8178;DHT22;4130;48.740;9.132;2023-03-23T06:49:59;12.90;99.90
8178;DHT22;4130;48.740;9.132;2023-03-23T06:52:26;12.90;99.90
8178;DHT22;4130;48.740;9.132;2023-03-23T06:54:53;13.20;99.90
8178;DHT22;4130;48.740;9.132;2023-03-23T06:57:20;13.40;99.90
8178;DHT22;4130;48.740;9.132;2023-03-23T06:59:47;13.70;99.90
8178;DHT22;4130;48.740;9.132;2023-03-23T07:02:14;13.90;99.70
8178;DHT22;4130;48.740;9.132;2023-03-23T07:04:41;14.00;99.90
8178;DHT22;4130;48.740;9.132;2023-03-23T07:07:10;14.20;99.20
8178;DHT22;4130;48.740;9.132;2023-03-23T07:09:40;14.30;99.30
8178;DHT22;4130;48.740;9.132;2023-03-23T07:12:06;14.30;99.20
8178;DHT22;4130;48.740;9.132;2023-03-23T07:14:33;14.30;99.10
8178;DHT22;4130;48.740;9.132;2023-03-23T07:17:00;14.20;99.00
8178;DHT22;4130;48.740;9.132;2023-03-23T07:19:28;14.20;98.50
8178;DHT22;4130;48.740;9.132;2023-03-23T07:21:55;14.20;98.90
8178;DHT22;4130;48.740;9.132;2023-03-23T07:24:23;14.10;99.40
8178;DHT22;4130;48.740;9.132;2023-03-23T07:26:50;14.10;99.10
8178;DHT22;4130;48.740;9.132;2023-03-23T07:29:17;14.00;99.20
8178;DHT22;4130;48.740;9.132;2023-03-23T07:31:44;14.00;98.80
8178;DHT22;4130;48.740;9.132;2023-03-23T07:34:11;13.90;98.80
8178;DHT22;4130;48.740;9.132;2023-03-23T07:36:38;13.90;99.10
8178;DHT22;4130;48.740;9.132;2023-03-23T07:39:05;13.90;99.00
8178;DHT22;4130;48.740;9.132;2023-03-23T07:41:33;14.00;99.10
8178;DHT22;4130;48.740;9.132;2023-03-23T07:44:01;14.10;99.00
8178;DHT22;4130;48.740;9.132;2023-03-23T07:46:28;14.20;98.60
8178;DHT22;4130;48.740;9.132;2023-03-23T07:48:55;14.30;98.90
8178;DHT22;4130;48.740;9.132;2023-03-23T07:51:22;14.40;98.50
8178;DHT22;4130;48.740;9.132;2023-03-23T07:53:50;14.60;98.90
8178;DHT22;4130;48.740;9.132;2023-03-23T07:56:17;14.80;98.50
8178;DHT22;4130;48.740;9.132;2023-03-23T07:58:46;15.00;98.40
8178;DHT22;4130;48.740;9.132;2023-03-23T08:01:14;15.10;98.20
8178;DHT22;4130;48.740;9.132;2023-03-23T08:03:41;15.20;98.20
8178;DHT22;4130;48.740;9.132;2023-03-23T08:06:08;15.30;98.00
8178;DHT22;4130;48.740;9.132;2023-03-23T08:08:36;15.30;98.00
8178;DHT22;4130;48.740;9.132;2023-03-23T08:11:03;15.30;98.20
8178;DHT22;4130;48.740;9.132;2023-03-23T08:13:30;15.30;98.20
8178;DHT22;4130;48.740;9.132;2023-03-23T08:16:00;15.20;98.50
8178;DHT22;4130;48.740;9.132;2023-03-23T08:18:29;15.20;98.30
8178;DHT22;4130;48.740;9.132;2023-03-23T08:20:55;15.20;98.30
8178;DHT22;4130;48.740;9.132;2023-03-23T08:23:22;15.10;98.50
8178;DHT22;4130;48.740;9.132;2023-03-23T08:25:49;15.20;99.00
8178;DHT22;4130;48.740;9.132;2023-03-23T08:28:16;15.30;99.10
8178;DHT22;4130;48.740;9.132;2023-03-23T08:30:42;15.40;99.10
8178;DHT22;4130;48.740;9.132;2023-03-23T08:33:10;15.60;98.70
8178;DHT22;4130;48.740;9.132;2023-03-23T08:35:41;15.60;99.30
8178;DHT22;4130;48.740;9.132;2023-03-23T08:38:09;15.70;99.00
8178;DHT22;4130;48.740;9.132;2023-03-23T08:40:37;15.60;99.00
8178;DHT22;4130;48.740;9.132;2023-03-23T08:43:04;15.70;99.10
8178;DHT22;4130;48.740;9.132;2023-03-23T08:45:32;15.70;99.10
8178;DHT22;4130;48.740;9.132;2023-03-23T08:48:01;15.60;99.20
8178;DHT22;4130;48.740;9.132;2023-03-23T08:50:29;15.60;99.30
8178;DHT22;4130;48.740;9.132;2023-03-23T08:52:57;15.60;99.50
8178;DHT22;4130;48.740;9.132;2023-03-23T08:55:24;15.60;99.80
8178;DHT22;4130;48.740;9.132;2023-03-23T08:57:51;15.70;99.40
8178;DHT22;4130;48.740;9.132;2023-03-23T09:00:20;15.60;99.80
8178;DHT22;4130;48.740;9.132;2023-03-23T09:02:51;15.60;99.60
8178;DHT22;4130;48.740;9.132;2023-03-23T09:05:20;15.50;99.60
8178;DHT22;4130;48.740;9.132;2023-03-23T09:07:50;15.60;99.60
8178;DHT22;4130;48.740;9.132;2023-03-23T09:10:18;15.80;99.80
8178;DHT22;4130;48.740;9.132;2023-03-23T09:12:46;15.80;99.80
8178;DHT22;4130;48.740;9.132;2023-03-23T09:15:15;16.00;99.60
8178;DHT22;4130;48.740;9.132;2023-03-23T09:17:44;16.00;99.20
8178;DHT22;4130;48.740;9.132;2023-03-23T09:20:13;16.10;99.80
8178;DHT22;4130;48.740;9.132;2023-03-23T09:22:42;16.20;99.60
8178;DHT22;4130;48.740;9.132;2023-03-23T09:25:14;16.20;99.30
8178;DHT22;4130;48.740;9.132;2023-03-23T09:27:42;16.20;98.70
8178;DHT22;4130;48.740;9.132;2023-03-23T09:30:13;16.20;99.00
8178;DHT22;4130;48.740;9.132;2023-03-23T09:32:41;16.30;99.00
8178;DHT22;4130;48.740;9.132;2023-03-23T09:35:09;16.20;98.90
8178;DHT22;4130;48.740;9.132;2023-03-23T09:37:38;16.20;99.00
8178;DHT22;4130;48.740;9.132;2023-03-23T09:40:09;15.80;99.00
8178;DHT22;4130;48.740;9.132;2023-03-23T09:42:46;15.70;99.60
8178;DHT22;4130;48.740;9.132;2023-03-23T09:45:19;15.80;99.40
8178;DHT22;4130;48.740;9.132;2023-03-23T09:48:01;15.80;99.40
8178;DHT22;4130;48.740;9.132;2023-03-23T09:50:31;15.70;99.20
8178;DHT22;4130;48.740;9.132;2023-03-23T09:53:02;15.80;99.40
8178;DHT22;4130;48.740;9.132;2023-03-23T09:55:35;15.70;99.20
8178;DHT22;4130;48.740;9.132;2023-03-23T09:58:10;15.90;99.60
8178;DHT22;4130;48.740;9.132;2023-03-23T10:00:41;16.00;99.20
8178;DHT22;4130;48.740;9.132;2023-03-23T10:03:13;16.10;99.40
8178;DHT22;4130;48.740;9.132;2023-03-23T10:05:42;16.30;99.20
8178;DHT22;4130;48.740;9.132;2023-03-23T10:08:13;16.40;99.00
8178;DHT22;4130;48.740;9.132;2023-03-23T10:10:47;16.60;99.20
8178;DHT22;4130;48.740;9.132;2023-03-23T10:13:23;16.80;98.80
8178;DHT22;4130;48.740;9.132;2023-03-23T10:15:51;17.10;98.60
8178;DHT22;4130;48.740;9.132;2023-03-23T10:18:26;17.30;98.70
8178;DHT22;4130;48.740;9.132;2023-03-23T10:20:57;17.40;98.30
8178;DHT22;4130;48.740;9.132;2023-03-23T10:23:38;17.20;98.10
8178;DHT22;4130;48.740;9.132;2023-03-23T10:26:12;17.20;98.60
8178;DHT22;4130;48.740;9.132;2023-03-23T10:28:46;17.30;98.40
8178;DHT22;4130;48.740;9.132;2023-03-23T10:31:17;17.10;98.50
8178;DHT22;4130;48.740;9.132;2023-03-23T10:33:47;17.00;98.50
8178;DHT22;4130;48.740;9.132;2023-03-23T10:36:17;17.00;98.70
8178;DHT22;4130;48.740;9.132;2023-03-23T10:38:48;16.90;98.70
8178;DHT22;4130;48.740;9.132;2023-03-23T10:41:18;16.90;98.80
8178;DHT22;4130;48.740;9.132;2023-03-23T10:43:47;16.80;98.90
8178;DHT22;4130;48.740;9.132;2023-03-23T10:46:43;17.00;98.90
8178;DHT22;4130;48.740;9.132;2023-03-23T10:49:17;17.30;98.60
8178;DHT22;4130;48.740;9.132;2023-03-23T10:54:35;17.60;98.60
8178;DHT22;4130;48.740;9.132;2023-03-23T10:57:12;17.80;98.40
8178;DHT22;4130;48.740;9.132;2023-03-23T10:59:41;18.10;98.40
8178;DHT22;4130;48.740;9.132;2023-03-23T11:02:14;18.30;97.60
8178;DHT22;4130;48.740;9.132;2023-03-23T11:04:46;18.20;98.10
8178;DHT22;4130;48.740;9.132;2023-03-23T11:07:18;18.10;97.80
8178;DHT22;4130;48.740;9.132;2023-03-23T11:09:57;17.90;98.00
8178;DHT22;4130;48.740;9.132;2023-03-23T11:12:33;18.00;97.80
8178;DHT22;4130;48.740;9.132;2023-03-23T11:15:21;17.90;97.80
8178;DHT22;4130;48.740;9.132;2023-03-23T11:17:55;17.90;98.00
8178;DHT22;4130;48.740;9.132;2023-03-23T11:20:24;17.80;97.70
8178;DHT22;4130;48.740;9.132;2023-03-23T11:22:52;17.70;98.10
8178;DHT22;4130;48.740;9.132;2023-03-23T11:25:19;17.70;98.10
8178;DHT22;4130;48.740;9.132;2023-03-23T11:27:46;17.50;98.10
8178;DHT22;4130;48.740;9.132;2023-03-23T11:30:21;17.30;98.40
8178;DHT22;4130;48.740;9.132;2023-03-23T11:32:49;17.00;98.90
8178;DHT22;4130;48.740;9.132;2023-03-23T11:35:20;16.70;99.10
8178;DHT22;4130;48.740;9.132;2023-03-23T11:37:49;16.80;99.60
8178;DHT22;4130;48.740;9.132;2023-03-23T11:40:20;17.00;99.70
8178;DHT22;4130;48.740;9.132;2023-03-23T11:42:49;17.40;99.50
8178;DHT22;4130;48.740;9.132;2023-03-23T11:45:22;17.80;98.70
8178;DHT22;4130;48.740;9.132;2023-03-23T11:47:59;18.10;98.30
8178;DHT22;4130;48.740;9.132;2023-03-23T11:50:29;18.40;98.10
8178;DHT22;4130;48.740;9.132;2023-03-23T11:53:02;18.50;97.60
8178;DHT22;4130;48.740;9.132;2023-03-23T11:55:34;18.40;97.20
8178;DHT22;4130;48.740;9.132;2023-03-23T11:58:10;18.40;97.30
8178;DHT22;4130;48.740;9.132;2023-03-23T12:00:42;18.40;97.50
8178;DHT22;4130;48.740;9.132;2023-03-23T12:03:28;18.50;96.70
8178;DHT22;4130;48.740;9.132;2023-03-23T12:06:02;18.20;96.20
8178;DHT22;4130;48.740;9.132;2023-03-23T12:08:45;18.00;96.70
8178;DHT22;4130;48.740;9.132;2023-03-23T12:11:23;17.90;96.70
8178;DHT22;4130;48.740;9.132;2023-03-23T12:14:06;17.70;97.20
8178;DHT22;4130;48.740;9.132;2023-03-23T12:16:47;17.80;96.70
8178;DHT22;4130;48.740;9.132;2023-03-23T12:19:21;17.90;96.90
8178;DHT22;4130;48.740;9.132;2023-03-23T12:21:57;18.10;96.70
8178;DHT22;4130;48.740;9.132;2023-03-23T12:24:37;17.70;96.70
8178;DHT22;4130;48.740;9.132;2023-03-23T12:27:12;17.90;96.80
8178;DHT22;4130;48.740;9.132;2023-03-23T12:29:51;18.00;96.60
8178;DHT22;4130;48.740;9.132;2023-03-23T12:32:43;18.10;96.60
8178;DHT22;4130;48.740;9.132;2023-03-23T12:35:23;18.00;96.40
8178;DHT22;4130;48.740;9.132;2023-03-23T12:38:02;17.90;96.40
8178;DHT22;4130;48.740;9.132;2023-03-23T12:40:47;17.80;96.50
8178;DHT22;4130;48.740;9.132;2023-03-23T12:43:21;17.80;96.70
8178;DHT22;4130;48.740;9.132;2023-03-23T12:46:10;18.10;96.40
8178;DHT22;4130;48.740;9.132;2023-03-23T12:48:41;18.10;96.40
8178;DHT22;4130;48.740;9.132;2023-03-23T12:51:18;18.30;96.40
8178;DHT22;4130;48.740;9.132;2023-03-23T12:53:55;18.60;96.40
8178;DHT22;4130;48.740;9.132;2023-03-23T12:56:28;18.80;96.00
8178;DHT22;4130;48.740;9.132;2023-03-23T12:59:01;19.00;96.70
8178;DHT22;4130;48.740;9.132;2023-03-23T13:01:32;19.20;96.00
8178;DHT22;4130;48.740;9.132;2023-03-23T13:04:06;19.10;95.70
8178;DHT22;4130;48.740;9.132;2023-03-23T13:06:37;19.00;96.00
8178;DHT22;4130;48.740;9.132;2023-03-23T13:09:09;19.10;96.00
8178;DHT22;4130;48.740;9.132;2023-03-23T13:11:39;18.90;95.80
8178;DHT22;4130;48.740;9.132;2023-03-23T13:14:19;18.80;96.20
8178;DHT22;4130;48.740;9.132;2023-03-23T13:17:06;18.80;96.20
8178;DHT22;4130;48.740;9.132;2023-03-23T13:19:56;18.70;96.10
8178;DHT22;4130;48.740;9.132;2023-03-23T13:22:31;18.60;96.50
8178;DHT22;4130;48.740;9.132;2023-03-23T13:25:00;18.80;96.20
8178;DHT22;4130;48.740;9.132;2023-03-23T13:27:29;18.80;95.60
8178;DHT22;4130;48.740;9.132;2023-03-23T13:29:56;18.80;95.70
8178;DHT22;4130;48.740;9.132;2023-03-23T13:32:34;18.90;95.50
8178;DHT22;4130;48.740;9.132;2023-03-23T13:35:04;19.00;95.60
8178;DHT22;4130;48.740;9.132;2023-03-23T13:37:32;18.90;95.40
8178;DHT22;4130;48.740;9.132;2023-03-23T13:40:16;18.60;95.20
8178;DHT22;4130;48.740;9.132;2023-03-23T13:42:50;18.50;95.40
8178;DHT22;4130;48.740;9.132;2023-03-23T13:45:22;18.50;95.20
8178;DHT22;4130;48.740;9.132;2023-03-23T13:47:50;18.30;95.30
8178;DHT22;4130;48.740;9.132;2023-03-23T13:50:30;18.20;95.60
8178;DHT22;4130;48.740;9.132;2023-03-23T13:53:00;18.20;95.50
8178;DHT22;4130;48.740;9.132;2023-03-23T13:55:41;18.20;95.40
8178;DHT22;4130;48.740;9.132;2023-03-23T13:58:21;18.00;95.70
8178;DHT22;4130;48.740;9.132;2023-03-23T14:01:00;17.90;95.60
8178;DHT22;4130;48.740;9.132;2023-03-23T14:03:36;17.60;95.80
8178;DHT22;4130;48.740;9.132;2023-03-23T14:06:06;17.50;95.90
8178;DHT22;4130;48.740;9.132;2023-03-23T14:08:39;17.40;96.00
8178;DHT22;4130;48.740;9.132;2023-03-23T14:11:19;17.50;96.00
8178;DHT22;4130;48.740;9.132;2023-03-23T14:13:51;17.60;96.10
8178;DHT22;4130;48.740;9.132;2023-03-23T14:16:27;17.60;95.40
8178;DHT22;4130;48.740;9.132;2023-03-23T14:19:00;17.70;96.00
8178;DHT22;4130;48.740;9.132;2023-03-23T14:21:34;17.70;95.60
8178;DHT22;4130;48.740;9.132;2023-03-23T14:24:03;17.70;95.40
8178;DHT22;4130;48.740;9.132;2023-03-23T14:26:33;17.80;96.00
8178;DHT22;4130;48.740;9.132;2023-03-23T14:29:01;17.80;95.30
8178;DHT22;4130;48.740;9.132;2023-03-23T14:31:28;17.80;94.80
8178;DHT22;4130;48.740;9.132;2023-03-23T14:33:56;17.70;95.10
8178;DHT22;4130;48.740;9.132;2023-03-23T14:36:29;17.70;94.90
8178;DHT22;4130;48.740;9.132;2023-03-23T14:39:01;17.70;95.20
8178;DHT22;4130;48.740;9.132;2023-03-23T14:41:30;17.80;95.00
8178;DHT22;4130;48.740;9.132;2023-03-23T14:43:58;17.90;95.10
8178;DHT22;4130;48.740;9.132;2023-03-23T14:46:26;17.80;94.90
8178;DHT22;4130;48.740;9.132;2023-03-23T14:48:53;17.90;94.80
8178;DHT22;4130;48.740;9.132;2023-03-23T14:51:21;17.70;94.90
8178;DHT22;4130;48.740;9.132;2023-03-23T14:53:48;17.70;94.60
8178;DHT22;4130;48.740;9.132;2023-03-23T14:56:19;17.70;94.40
8178;DHT22;4130;48.740;9.132;2023-03-23T14:58:48;17.70;94.80
8178;DHT22;4130;48.740;9.132;2023-03-23T15:01:18;17.60;94.40
8178;DHT22;4130;48.740;9.132;2023-03-23T15:03:52;17.50;94.50
8178;DHT22;4130;48.740;9.132;2023-03-23T15:06:21;17.60;94.60
8178;DHT22;4130;48.740;9.132;2023-03-23T15:08:50;17.50;94.50
8178;DHT22;4130;48.740;9.132;2023-03-23T15:11:27;17.60;94.20
8178;DHT22;4130;48.740;9.132;2023-03-23T15:13:58;17.60;94.20
8178;DHT22;4130;48.740;9.132;2023-03-23T15:16:30;17.60;94.10
8178;DHT22;4130;48.740;9.132;2023-03-23T15:18:58;17.50;93.80
8178;DHT22;4130;48.740;9.132;2023-03-23T15:21:28;17.50;94.00
8178;DHT22;4130;48.740;9.132;2023-03-23T15:23:56;17.60;94.20
8178;DHT22;4130;48.740;9.132;2023-03-23T15:26:31;17.50;93.90
8178;DHT22;4130;48.740;9.132;2023-03-23T15:29:15;17.60;93.90
8178;DHT22;4130;48.740;9.132;2023-03-23T15:31:44;17.50;94.10
8178;DHT22;4130;48.740;9.132;2023-03-23T15:34:17;17.40;94.30
8178;DHT22;4130;48.740;9.132;2023-03-23T15:36:45;17.30;93.80
8178;DHT22;4130;48.740;9.132;2023-03-23T15:39:13;17.20;93.80
8178;DHT22;4130;48.740;9.132;2023-03-23T15:41:48;17.10;93.90
8178;DHT22;4130;48.740;9.132;2023-03-23T15:44:28;17.10;93.80
8178;DHT22;4130;48.740;9.132;2023-03-23T15:47:14;16.90;94.00
8178;DHT22;4130;48.740;9.132;2023-03-23T15:49:42;16.90;93.90
8178;DHT22;4130;48.740;9.132;2023-03-23T15:52:11;16.80;94.10
8178;DHT22;4130;48.740;9.132;2023-03-23T15:54:38;16.70;94.30
8178;DHT22;4130;48.740;9.132;2023-03-23T15:57:08;16.70;94.40
8178;DHT22;4130;48.740;9.132;2023-03-23T15:59:36;16.60;94.50
8178;DHT22;4130;48.740;9.132;2023-03-23T16:02:03;16.60;94.40
8178;DHT22;4130;48.740;9.132;2023-03-23T16:04:30;16.50;94.30
8178;DHT22;4130;48.740;9.132;2023-03-23T16:06:58;16.50;94.40
8178;DHT22;4130;48.740;9.132;2023-03-23T16:09:26;16.40;94.60
8178;DHT22;4130;48.740;9.132;2023-03-23T16:11:52;16.40;94.70
8178;DHT22;4130;48.740;9.132;2023-03-23T16:14:21;16.30;94.90
8178;DHT22;4130;48.740;9.132;2023-03-23T16:16:49;16.20;94.60
8178;DHT22;4130;48.740;9.132;2023-03-23T16:19:17;16.10;94.70
8178;DHT22;4130;48.740;9.132;2023-03-23T16:21:45;16.10;94.70
8178;DHT22;4130;48.740;9.132;2023-03-23T16:24:12;16.10;94.80
8178;DHT22;4130;48.740;9.132;2023-03-23T16:26:39;16.10;94.70
8178;DHT22;4130;48.740;9.132;2023-03-23T16:29:10;16.00;94.90